Time;durP1;ratioP1;P1;durP2;ratioP2;P2;SDS_P1;SDS_P2;PMS_P1;PMS_P2;Temp;Humidity;BMP_temperature;BMP_pressure;BME280_temperature;BME280_humidity;BME280_pressure;Samples;Min_cycle;Max_cycle;Signal;HPM_P1;HPM_P2
2024/03/15 00:02:22;;;;;;;4.40;3.97;;;;;;;13.10;59.14;98364.34;6713438;29;20213;-83
2024/03/15 00:05:44;;;;;;;6.67;3.60;;;;;;;13.13;59.59;98349.53;6711715;29;20213;-83
2024/03/15 00:09:05;;;;;;;4.50;3.97;;;;;;;12.79;60.39;98358.31;6712711;29;20234;-84
2024/03/15 00:12:27;;;;;;;7.90;4.20;;;;;;;12.89;60.04;98347.78;6713198;29;20479;-83
2024/03/15 00:15:49;;;;;;;4.53;3.40;;;;;;;13.26;59.59;98349.31;6712960;29;20240;-83
2024/03/15 00:19:10;;;;;;;6.37;3.80;;;;;;;13.40;59.00;98348.06;6713088;29;20317;-83
2024/03/15 00:22:34;;;;;;;4.93;4.40;;;;;;;12.74;60.70;98350.09;6730100;29;20487;-84
2024/03/15 00:25:56;;;;;;;5.97;3.70;;;;;;;12.91;59.69;98340.25;6729678;29;20274;-83
2024/03/15 00:29:18;;;;;;;4.03;3.57;;;;;;;12.78;60.92;98346.69;6712597;29;20240;-83
2024/03/15 00:32:39;;;;;;;4.80;4.30;;;;;;;12.94;60.15;98362.28;6713822;29;20209;-83
2024/03/15 00:36:01;;;;;;;4.70;4.30;;;;;;;12.76;60.92;98356.09;6713211;29;20210;-83
2024/03/15 00:39:23;;;;;;;4.10;3.30;;;;;;;12.55;59.84;98354.72;6712683;29;20237;-83
2024/03/15 00:42:44;;;;;;;4.20;3.80;;;;;;;12.52;59.58;98333.53;6713828;29;20285;-83
2024/03/15 00:46:06;;;;;;;4.50;3.80;;;;;;;12.59;59.98;98339.69;6703869;29;20292;-83
2024/03/15 00:49:28;;;;;;;4.10;3.70;;;;;;;12.47;60.19;98356.91;6705471;29;20255;-83
2024/03/15 00:52:49;;;;;;;4.70;4.13;;;;;;;12.05;63.47;98355.94;6716880;29;20225;-84
2024/03/15 00:56:11;;;;;;;5.33;4.37;;;;;;;12.06;62.77;98319.81;6720496;29;20192;-83
2024/03/15 00:59:32;;;;;;;5.03;3.63;;;;;;;12.71;60.67;98345.13;6713957;29;20237;-83
2024/03/15 01:02:54;;;;;;;5.73;4.70;;;;;;;12.70;59.67;98349.72;6712840;29;20217;-83
2024/03/15 01:06:16;;;;;;;6.30;3.90;;;;;;;12.19;60.32;98281.81;6712470;29;20241;-83
2024/03/15 01:09:37;;;;;;;4.07;3.77;;;;;;;11.91;62.25;98343.66;6712041;29;20241;-83
2024/03/15 01:12:59;;;;;;;6.00;4.27;;;;;;;11.32;62.03;98224.63;6708192;29;20255;-87
2024/03/15 01:16:21;;;;;;;6.07;4.13;;;;;;;12.00;62.55;98346.88;6693050;29;20304;-85
2024/03/15 01:19:45;;;;;;;4.83;4.43;;;;;;;12.31;62.33;98350.25;6694302;29;20236;-83
2024/03/15 01:23:06;;;;;;;4.80;3.87;;;;;;;12.44;61.08;98297.88;6695807;29;20609;-83
2024/03/15 01:26:28;;;;;;;5.87;4.10;;;;;;;12.37;61.05;98348.50;6670244;29;20308;-84
2024/03/15 01:29:49;;;;;;;4.40;3.93;;;;;;;12.41;60.77;98326.22;6669088;29;20261;-83
2024/03/15 01:33:11;;;;;;;4.87;3.80;;;;;;;12.22;60.97;98329.16;6679759;29;20214;-84
2024/03/15 01:36:33;;;;;;;5.23;3.80;;;;;;;12.56;60.14;98325.81;6706224;29;20213;-84
2024/03/15 01:39:54;;;;;;;3.97;3.67;;;;;;;12.33;60.03;98293.28;6716526;29;20233;-84
2024/03/15 01:43:16;;;;;;;5.13;3.50;;;;;;;12.57;59.51;98308.53;6714844;29;20765;-84
2024/03/15 01:46:38;;;;;;;3.97;3.57;;;;;;;12.42;60.09;98321.63;6717612;29;20212;-84
2024/03/15 01:49:59;;;;;;;4.53;4.13;;;;;;;12.17;61.01;98302.81;7147182;24;20353;-85
2024/03/15 01:53:21;;;;;;;5.57;3.93;;;;;;;12.61;60.02;98321.34;6746461;29;20712;-84
2024/03/15 01:56:43;;;;;;;6.13;4.17;;;;;;;12.28;61.06;98323.66;6717433;29;20584;-84
2024/03/15 02:00:06;;;;;;;5.00;4.60;;;;;;;11.69;62.63;98317.31;7170687;24;20743;-85
2024/03/15 02:03:29;;;;;;;6.10;4.23;;;;;;;12.47;61.00;98316.34;6703070;29;20209;-85
2024/03/15 02:06:51;;;;;;;4.27;3.87;;;;;;;12.68;60.04;98308.56;6692692;29;20353;-85
2024/03/15 02:10:13;;;;;;;4.17;3.77;;;;;;;12.31;60.04;98314.28;6699261;29;20241;-85
2024/03/15 02:13:34;;;;;;;4.60;4.20;;;;;;;12.21;60.14;98311.31;6692007;29;20361;-84
2024/03/15 02:16:56;;;;;;;4.80;3.97;;;;;;;12.14;61.46;98316.78;6692544;29;20296;-85
2024/03/15 02:24:16;;;;;;;4.43;4.03;;;;;;;12.37;60.63;98300.69;6696473;29;20213;-85
2024/03/15 02:27:38;;;;;;;5.23;4.03;;;;;;;12.05;60.47;98309.22;6676984;29;20245;-85
2024/03/15 02:31:00;;;;;;;6.07;5.13;;;;;;;12.05;61.39;98309.22;6691603;29;20328;-85
2024/03/15 02:34:21;;;;;;;5.90;4.43;;;;;;;11.84;61.49;98313.19;6692089;29;20250;-84
2024/03/15 02:37:43;;;;;;;5.27;4.43;;;;;;;11.92;61.95;98306.66;6671241;29;20254;-85
2024/03/15 02:41:09;;;;;;;4.47;4.07;;;;;;;12.23;60.89;98323.50;6666751;29;20372;-85
2024/03/15 02:44:30;;;;;;;4.70;4.30;;;;;;;12.33;61.08;98318.41;6668853;29;20197;-84
2024/03/15 02:47:52;;;;;;;4.43;4.03;;;;;;;11.81;62.04;98307.41;6690932;29;20213;-84
2024/03/15 02:51:14;;;;;;;5.50;4.50;;;;;;;11.49;62.22;98322.03;6679323;29;20699;-84
2024/03/15 02:54:35;;;;;;;6.33;4.60;;;;;;;11.79;62.26;98314.91;6679504;29;20295;-84
2024/03/15 02:57:57;;;;;;;4.77;4.27;;;;;;;11.44;62.40;98321.88;6673170;29;20353;-84
2024/03/15 03:01:19;;;;;;;6.03;4.50;;;;;;;11.18;61.97;98298.69;6668275;29;20229;-84
2024/03/15 03:04:41;;;;;;;11.87;4.60;;;;;;;11.66;62.57;98323.16;6669943;29;20269;-84
2024/03/15 03:08:03;;;;;;;7.27;4.60;;;;;;;11.91;61.58;98329.31;6691176;29;20299;-84
2024/03/15 03:11:25;;;;;;;4.67;4.27;;;;;;;12.07;60.84;98331.41;6679795;29;20276;-84
2024/03/15 03:14:47;;;;;;;4.47;4.07;;;;;;;11.82;61.24;98330.66;6679898;29;20257;-84
2024/03/15 03:18:08;;;;;;;5.23;4.60;;;;;;;11.91;61.36;98330.16;6695128;29;20228;-84
2024/03/15 03:21:30;;;;;;;5.40;4.27;;;;;;;11.93;60.56;98328.03;6696123;29;20303;-84
2024/03/15 03:24:52;;;;;;;4.83;4.17;;;;;;;12.04;60.67;98321.88;6695948;29;20292;-84
2024/03/15 03:28:14;;;;;;;5.97;4.50;;;;;;;11.85;60.79;98332.91;6672607;29;20273;-84
2024/03/15 03:31:36;;;;;;;5.43;4.57;;;;;;;11.57;60.34;98265.88;6671278;29;20240;-84
2024/03/15 03:34:57;;;;;;;4.50;4.10;;;;;;;11.86;60.68;98335.41;6670611;29;20304;-84
2024/03/15 03:38:19;;;;;;;5.33;4.33;;;;;;;11.60;60.97;98343.78;6669392;29;20377;-84
2024/03/15 03:41:41;;;;;;;6.80;4.50;;;;;;;11.65;60.83;98353.91;6666139;29;20270;-86
2024/03/15 03:45:15;;;;;;;5.97;5.13;;;;;;;11.24;62.22;98337.44;6651449;29;20205;-86
2024/03/15 03:48:37;;;;;;;4.97;4.50;;;;;;;11.53;63.60;98348.38;6653715;29;20626;-86
2024/03/15 03:51:59;;;;;;;4.97;4.47;;;;;;;11.65;62.61;98349.34;6650154;29;20260;-86
2024/03/15 03:55:20;;;;;;;5.60;4.43;;;;;;;11.67;61.67;98354.50;6650153;29;20713;-86
2024/03/15 03:58:44;;;;;;;4.47;4.07;;;;;;;11.41;61.87;98322.34;6675392;29;20233;-86
2024/03/15 04:02:06;;;;;;;5.20;4.27;;;;;;;11.07;64.77;98337.16;6674900;29;20421;-86
2024/03/15 04:05:28;;;;;;;4.20;3.77;;;;;;;10.78;61.28;98213.75;6674791;29;20220;-86
2024/03/15 04:08:50;;;;;;;4.33;3.93;;;;;;;10.69;61.46;98279.75;6664090;29;20237;-86
2024/03/15 04:12:12;;;;;;;7.23;4.10;;;;;;;11.30;62.24;98358.13;6664800;29;20276;-86
2024/03/15 04:15:33;;;;;;;4.53;4.03;;;;;;;11.46;62.46;98357.59;6679115;29;20201;-86
2024/03/15 04:18:55;;;;;;;4.67;4.27;;;;;;;11.81;61.24;98337.13;6689512;29;20334;-86
2024/03/15 04:22:17;;;;;;;4.80;4.10;;;;;;;11.21;60.90;98265.84;6689802;29;20292;-87
2024/03/15 04:25:38;;;;;;;4.93;4.00;;;;;;;11.60;59.49;98235.78;6689577;29;20695;-87
2024/03/15 04:29:01;;;;;;;8.53;3.80;;;;;;;11.80;59.78;98357.09;6689047;29;20673;-86
2024/03/15 04:32:22;;;;;;;5.13;4.27;;;;;;;11.16;60.41;98244.09;6674971;29;20236;-86
2024/03/15 04:35:44;;;;;;;4.57;4.17;;;;;;;11.04;60.00;98220.78;6674394;29;20221;-87
2024/03/15 04:39:07;;;;;;;7.33;4.30;;;;;;;10.85;61.09;98230.69;6689383;29;20377;-86
2024/03/15 04:42:32;;;;;;;7.30;4.30;;;;;;;11.90;60.31;98358.22;6689803;29;20205;-87
2024/03/15 04:45:53;;;;;;;5.97;4.67;;;;;;;11.11;60.79;98260.13;6685922;29;20209;-86
2024/03/15 04:49:17;;;;;;;7.23;4.40;;;;;;;11.76;60.14;98318.06;6685793;29;20236;-86
2024/03/15 04:52:39;;;;;;;5.87;4.57;;;;;;;11.61;61.22;98331.09;6660689;29;20229;-86
2024/03/15 04:56:02;;;;;;;4.97;4.43;;;;;;;11.84;60.83;98342.06;6682953;29;20354;-86
2024/03/15 04:59:23;;;;;;;4.90;4.47;;;;;;;11.08;62.00;98265.13;6663960;29;20308;-87
2024/03/15 05:02:46;;;;;;;5.30;4.77;;;;;;;11.46;61.36;98344.91;6664259;29;20289;-87
2024/03/15 05:06:08;;;;;;;4.47;3.90;;;;;;;11.09;61.78;98264.91;6689724;29;20672;-86
2024/03/15 05:09:30;;;;;;;4.77;4.30;;;;;;;11.25;61.53;98261.66;6689829;29;20320;-87
2024/03/15 05:12:51;;;;;;;4.63;4.07;;;;;;;11.07;61.36;98248.13;6688991;29;20233;-86
2024/03/15 05:16:14;;;;;;;6.70;3.87;;;;;;;11.36;61.76;98317.59;6688982;29;20847;-86
2024/03/15 05:19:36;;;;;;;4.77;4.33;;;;;;;11.76;61.29;98366.69;6688656;29;20287;-86
2024/03/15 05:22:58;;;;;;;5.37;4.63;;;;;;;11.71;62.19;98374.63;6679003;29;20213;-87
2024/03/15 05:26:20;;;;;;;5.40;3.77;;;;;;;11.69;61.65;98336.22;6665794;29;20241;-86
2024/03/15 05:29:42;;;;;;;6.23;5.10;;;;;;;11.62;62.19;98384.06;6666301;29;20257;-82
2024/03/15 05:33:04;;;;;;;7.37;6.67;;;;;;;12.05;61.70;98380.28;6673078;29;20695;-86
2024/03/15 05:36:26;;;;;;;7.97;6.60;;;;;;;11.75;60.19;98308.31;6679904;29;20208;-86
2024/03/15 05:39:48;;;;;;;8.03;6.57;;;;;;;11.82;60.24;98328.81;6669969;29;20736;-85
2024/03/15 05:43:10;;;;;;;10.63;5.27;;;;;;;11.46;61.57;98368.38;6682577;29;20385;-86
2024/03/15 05:46:32;;;;;;;8.77;6.13;;;;;;;12.04;60.69;98380.53;6675730;29;20234;-86
2024/03/15 05:49:55;;;;;;;6.17;5.57;;;;;;;12.18;60.27;98417.97;6685035;29;20230;-86
2024/03/15 05:53:16;;;;;;;6.27;5.67;;;;;;;11.48;63.02;98410.31;6680728;29;20236;-86
2024/03/15 05:56:38;;;;;;;10.07;4.90;;;;;;;11.84;61.15;98420.41;6672862;29;20261;-86
2024/03/15 06:00:09;;;;;;;4.90;4.43;;;;;;;11.53;61.26;98406.94;6690379;29;20250;-86
2024/03/15 06:03:31;;;;;;;7.47;5.13;;;;;;;10.98;61.25;98308.78;6695140;29;20197;-85
2024/03/15 06:06:53;;;;;;;4.83;4.43;;;;;;;11.89;60.67;98420.56;6685805;29;20213;-86
2024/03/15 06:10:15;;;;;;;5.67;5.00;;;;;;;12.07;60.65;98413.31;6689752;29;20327;-86
2024/03/15 06:13:44;;;;;;;6.70;5.40;;;;;;;11.95;61.99;98420.50;6696664;29;20228;-84
2024/03/15 06:25:31;;;;;;;8.83;7.27;;;;;;;11.70;61.61;98424.28;6618250;29;20229;-84
2024/03/15 06:29:09;;;;;;;3.47;3.17;;;;;;;12.27;61.06;98429.31;6603225;29;20238;-86
2024/03/15 06:32:36;;;;;;;7.60;4.70;;;;;;;13.38;57.06;98429.50;6635691;29;20371;-88
2024/03/15 06:36:00;;;;;;;6.20;4.70;;;;;;;12.59;58.89;98395.66;6631914;29;20214;-86
2024/03/15 06:39:25;;;;;;;5.87;5.20;;;;;;;12.21;58.36;98298.59;6631011;29;20234;-85
2024/03/15 06:46:29;;;;;;;5.20;4.70;;;;;;;13.24;56.24;98341.44;6636635;29;20210;-86
2024/03/15 06:50:06;;;;;;;5.00;4.50;;;;;;;13.10;57.58;98364.34;6628163;29;20234;-85
2024/03/15 06:53:26;;;;;;;5.20;4.70;;;;;;;13.22;57.80;98416.63;6662101;29;20229;-86
2024/03/15 06:56:48;;;;;;;6.93;4.17;;;;;;;13.30;57.10;98362.16;6709120;29;20214;-88
2024/03/15 07:00:11;;;;;;;6.77;4.60;;;;;;;13.59;56.49;98420.00;6708411;29;20241;-85
2024/03/15 07:03:32;;;;;;;6.70;4.60;;;;;;;13.08;57.92;98361.06;6695107;29;20303;-85
2024/03/15 07:06:54;;;;;;;4.67;4.10;;;;;;;14.25;55.50;98415.94;6687199;29;20214;-84
2024/03/15 07:10:16;;;;;;;6.53;4.53;;;;;;;13.49;56.18;98354.75;6686068;29;20230;-83
2024/03/15 07:13:37;;;;;;;6.10;4.83;;;;;;;14.70;54.49;98369.94;6684417;29;20369;-84
2024/03/15 07:16:59;;;;;;;3.93;3.63;;;;;;;15.32;53.19;98360.78;6684354;29;20238;-84
2024/03/15 07:20:21;;;;;;;6.97;3.57;;;;;;;15.78;50.62;98309.66;6683169;29;20382;-85
2024/03/15 07:23:42;;;;;;;5.37;3.47;;;;;;;16.59;48.71;98363.25;6683087;29;20238;-85
2024/03/15 07:27:04;;;;;;;4.63;3.50;;;;;;;16.18;48.56;98320.25;6682677;29;20239;-85
2024/03/15 07:30:26;;;;;;;5.50;3.20;;;;;;;17.27;48.46;98385.28;6702908;29;20235;-84
2024/03/15 07:33:47;;;;;;;4.80;2.50;;;;;;;17.88;44.61;98360.19;6677026;29;20319;-84
2024/03/15 07:37:11;;;;;;;2.40;2.20;;;;;;;18.89;43.25;98447.88;6678819;29;20343;-85
2024/03/15 07:40:34;;;;;;;3.93;2.70;;;;;;;19.44;42.62;98445.34;6677182;29;20235;-86
2024/03/15 07:43:56;;;;;;;3.87;2.50;;;;;;;19.42;41.40;98357.31;6678770;29;20289;-85
2024/03/15 07:47:18;;;;;;;3.10;2.80;;;;;;;19.58;42.16;98364.41;6677211;29;20213;-84
2024/03/15 07:50:41;;;;;;;3.10;2.60;;;;;;;20.29;39.91;98356.97;6677620;29;20300;-85
2024/03/15 07:54:03;;;;;;;3.57;2.40;;;;;;;20.38;39.25;98356.13;6677219;29;20208;-84
2024/03/15 07:57:25;;;;;;;2.90;2.40;;;;;;;21.05;38.78;98353.66;6676871;29;20216;-84
2024/03/15 08:00:47;;;;;;;4.97;3.03;;;;;;;20.33;39.36;98377.25;6677906;29;20236;-84
2024/03/15 08:04:09;;;;;;;3.07;2.77;;;;;;;21.23;39.04;98437.19;6684387;29;20220;-85
2024/03/15 08:07:31;;;;;;;2.83;2.30;;;;;;;21.13;37.73;98365.97;6679827;29;20307;-84
2024/03/15 08:10:53;;;;;;;5.03;3.13;;;;;;;21.61;37.71;98366.69;6677570;29;20286;-84
2024/03/15 08:14:14;;;;;;;2.47;2.20;;;;;;;21.97;38.10;98409.28;6677983;29;20693;-87
2024/03/15 08:17:36;;;;;;;2.03;1.93;;;;;;;21.48;36.54;98355.59;6691176;29;20209;-85
2024/03/15 08:20:58;;;;;;;3.40;2.23;;;;;;;21.55;36.63;98339.59;6688104;29;20231;-85
2024/03/15 08:24:20;;;;;;;2.73;2.33;;;;;;;21.41;35.97;98333.94;6690790;29;20222;-84
2024/03/15 08:27:44;;;;;;;4.03;2.40;;;;;;;22.14;36.06;98450.03;6691069;29;20216;-81
2024/03/15 08:31:06;;;;;;;3.43;2.50;;;;;;;22.16;35.99;98437.66;6688640;29;20897;-83
2024/03/15 08:34:28;;;;;;;2.90;2.60;;;;;;;22.05;36.64;98458.06;6666462;29;20212;-82
2024/03/15 08:37:50;;;;;;;2.43;2.23;;;;;;;22.18;36.29;98462.91;6666793;29;20218;-83
2024/03/15 08:41:12;;;;;;;3.20;2.20;;;;;;;22.66;35.10;98467.41;6671404;29;20235;-83
2024/03/15 08:44:34;;;;;;;2.90;2.30;;;;;;;22.26;35.95;98459.56;6653112;29;20238;-82
2024/03/15 08:47:57;;;;;;;3.70;2.37;;;;;;;22.10;35.84;98466.28;6654703;29;20216;-84
2024/03/15 08:51:18;;;;;;;3.77;2.13;;;;;;;21.08;36.79;98389.53;6654006;29;20570;-82
2024/03/15 08:54:40;;;;;;;3.47;2.40;;;;;;;21.73;36.69;98441.28;6670666;29;20214;-81
2024/03/15 08:58:03;;;;;;;2.87;2.30;;;;;;;22.71;34.76;98470.09;6677430;29;20263;-84
2024/03/15 09:01:32;;;;;;;3.33;2.43;;;;;;;21.77;35.66;98373.75;6677497;29;20215;-84
2024/03/15 09:04:54;;;;;;;2.80;2.20;;;;;;;22.03;36.52;98440.25;6693589;29;20227;-84
2024/03/15 09:08:15;;;;;;;4.50;2.53;;;;;;;23.35;34.74;98447.63;6690930;29;20325;-84
2024/03/15 09:11:37;;;;;;;2.50;2.30;;;;;;;23.27;35.20;98429.88;6688373;29;20390;-84
2024/03/15 09:14:59;;;;;;;5.43;2.80;;;;;;;23.75;34.59;98433.28;6674340;29;20585;-84
2024/03/15 09:18:21;;;;;;;2.50;2.30;;;;;;;23.40;35.31;98434.63;6675846;29;20234;-84
2024/03/15 09:21:44;;;;;;;2.40;2.20;;;;;;;23.53;33.67;98438.56;6677743;29;20213;-83
2024/03/15 09:25:06;;;;;;;3.77;2.47;;;;;;;23.50;34.42;98434.50;6681235;29;20584;-84
2024/03/15 09:28:33;;;;;;;2.27;2.07;;;;;;;22.84;36.09;98421.88;6681838;29;20243;-85
2024/03/15 09:31:56;;;;;;;2.87;2.23;;;;;;;22.99;35.11;98372.16;6668249;29;20321;-84
2024/03/15 09:35:17;;;;;;;2.13;1.90;;;;;;;23.03;35.66;98430.97;6687470;29;20214;-84
2024/03/15 09:38:39;;;;;;;2.37;2.10;;;;;;;23.57;35.03;98442.38;6680319;29;20303;-84
2024/03/15 09:42:01;;;;;;;2.20;2.00;;;;;;;23.56;34.76;98429.72;6688348;29;21297;-84
2024/03/15 09:45:23;;;;;;;3.73;2.20;;;;;;;24.01;34.24;98409.78;6678141;29;20217;-84
2024/03/15 09:48:45;;;;;;;2.73;2.10;;;;;;;23.37;35.17;98421.47;6688905;29;20240;-84
2024/03/15 09:52:08;;;;;;;3.13;2.17;;;;;;;22.89;36.15;98405.31;6675581;29;20243;-84
2024/03/15 09:55:30;;;;;;;3.37;2.30;;;;;;;23.65;35.31;98412.25;6677119;29;20281;-84
2024/03/15 09:58:51;;;;;;;3.17;1.87;;;;;;;23.40;35.13;98426.38;6676677;29;20232;-84
2024/03/15 10:02:13;;;;;;;4.63;2.20;;;;;;;23.13;35.87;98368.41;6675593;29;20301;-84
2024/03/15 10:05:35;;;;;;;2.70;2.10;;;;;;;23.35;36.01;98400.84;6676637;29;20385;-84
2024/03/15 10:08:56;;;;;;;2.63;2.07;;;;;;;23.83;35.69;98411.41;6675850;29;20266;-84
2024/03/15 10:12:18;;;;;;;3.87;2.00;;;;;;;24.40;34.80;98394.47;6676964;29;20237;-83
2024/03/15 10:15:43;;;;;;;2.17;1.63;;;;;;;24.51;33.95;98400.59;6677854;29;20589;-84
2024/03/15 10:19:05;;;;;;;3.23;2.00;;;;;;;24.48;33.22;98396.50;6681918;29;20349;-84
2024/03/15 10:22:27;;;;;;;2.90;2.03;;;;;;;23.82;34.90;98392.44;6682776;29;20219;-83
2024/03/15 10:25:50;;;;;;;1.93;1.63;;;;;;;23.06;34.69;98361.66;6680225;29;20238;-84
2024/03/15 10:29:12;;;;;;;2.40;1.90;;;;;;;23.45;35.23;98418.06;6682516;29;20231;-84
2024/03/15 10:32:33;;;;;;;3.40;1.50;;;;;;;22.96;37.82;98359.03;6682198;29;20691;-84
2024/03/15 10:35:55;;;;;;;3.27;2.00;;;;;;;22.70;41.96;98437.41;6682157;29;20593;-83
2024/03/15 10:39:17;;;;;;;1.70;1.60;;;;;;;22.00;43.98;98443.53;6682225;29;20228;-84
2024/03/15 10:42:38;;;;;;;2.57;1.77;;;;;;;21.77;44.38;98438.81;6680076;29;20212;-84
2024/03/15 10:46:00;;;;;;;2.37;1.70;;;;;;;21.18;46.23;98443.53;6681047;29;20735;-85
2024/03/15 10:49:22;;;;;;;2.10;1.90;;;;;;;21.10;46.39;98443.31;6677264;29;20656;-83
2024/03/15 10:52:43;;;;;;;3.67;2.00;;;;;;;21.33;45.87;98448.94;6678043;29;20233;-82
2024/03/15 10:56:05;;;;;;;4.90;3.07;;;;;;;21.34;46.53;98451.41;6679408;29;20712;-84
2024/03/15 10:59:27;;;;;;;18.00;11.73;;;;;;;21.38;46.18;98455.22;6679392;29;20310;-83
2024/03/15 11:02:49;;;;;;;4.23;3.63;;;;;;;21.22;46.26;98438.31;6678428;29;20690;-80
2024/03/15 11:06:10;;;;;;;2.60;2.40;;;;;;;20.95;45.65;98361.97;6678891;29;20299;-87
2024/03/15 11:09:35;;;;;;;4.90;2.50;;;;;;;21.52;47.63;98447.16;6678972;29;20244;-82
2024/03/15 11:12:58;;;;;;;3.60;2.07;;;;;;;21.46;46.03;98451.88;6677758;29;20370;-81
2024/03/15 11:16:24;;;;;;;12.23;4.87;;;;;;;21.12;46.92;98392.56;6678422;29;20248;-83
2024/03/15 11:19:45;;;;;;;10.50;4.97;;;;;;;21.84;47.95;98462.06;6661199;29;20252;-81
2024/03/15 11:23:11;;;;;;;23.20;11.80;;;;;;;21.62;48.50;98444.38;6655236;29;20250;-80
2024/03/15 11:26:33;;;;;;;49.07;26.37;;;;;;;21.94;47.85;98462.00;6656606;29;20576;-81
2024/03/15 11:29:57;;;;;;;10.20;7.17;;;;;;;21.95;46.38;98455.41;6655286;29;20643;-81
2024/03/15 11:33:19;;;;;;;3.77;2.60;;;;;;;21.91;45.73;98459.84;6657387;29;20327;-81
2024/03/15 11:36:41;;;;;;;4.13;2.07;;;;;;;21.24;45.32;98454.19;6657749;29;20228;-82
2024/03/15 11:40:04;;;;;;;3.30;2.30;;;;;;;21.07;45.16;98457.56;6660400;29;20748;-84
2024/03/15 11:43:26;;;;;;;4.83;2.60;;;;;;;20.82;45.93;98463.09;6656928;29;20710;-80
2024/03/15 11:46:50;;;;;;;17.23;10.50;;;;;;;20.88;45.82;98467.47;6656002;29;20213;-81
2024/03/15 11:50:15;;;;;;;5.67;4.87;;;;;;;21.11;44.32;98464.94;6659114;29;20596;-84
2024/03/15 11:53:37;;;;;;;5.40;2.90;;;;;;;21.34;44.36;98459.63;6674741;29;20237;-81
2024/03/15 11:56:59;;;;;;;3.20;2.33;;;;;;;21.16;43.85;98451.19;6692696;29;20213;-81
2024/03/15 12:00:23;;;;;;;8.40;7.70;;;;;;;21.02;42.97;98457.56;6687273;29;20244;-81
2024/03/15 12:03:45;;;;;;;2.40;2.20;;;;;;;21.33;43.43;98459.91;6687323;29;20218;-81
2024/03/15 12:07:07;;;;;;;2.70;2.30;;;;;;;20.96;43.39;98395.66;6686359;29;20209;-81
2024/03/15 12:10:28;;;;;;;3.67;1.93;;;;;;;21.57;41.46;98405.97;6684494;29;20321;-81
2024/03/15 12:13:53;;;;;;;3.80;2.40;;;;;;;21.19;41.73;98368.41;6685405;29;20235;-81
2024/03/15 12:17:15;;;;;;;2.20;2.00;;;;;;;21.30;42.79;98436.59;6685844;29;20215;-81
2024/03/15 12:20:37;;;;;;;2.30;2.10;;;;;;;21.46;42.52;98438.16;6682368;29;20256;-81
2024/03/15 12:23:58;;;;;;;3.47;2.03;;;;;;;20.83;42.34;98410.75;6685141;29;20684;-81
2024/03/15 12:27:20;;;;;;;1.80;1.70;;;;;;;21.05;42.12;98429.59;6675578;29;20317;-81
2024/03/15 12:30:42;;;;;;;2.17;1.73;;;;;;;20.76;41.98;98434.06;6675578;29;20240;-82
2024/03/15 12:34:04;;;;;;;3.17;2.17;;;;;;;21.23;40.82;98438.84;6675769;29;20244;-81
2024/03/15 12:37:27;;;;;;;2.03;1.83;;;;;;;20.96;41.45;98436.75;6687772;29;20216;-81
2024/03/15 12:40:49;;;;;;;2.97;2.10;;;;;;;21.04;40.96;98430.72;6689330;29;20275;-81
2024/03/15 12:44:11;;;;;;;7.07;1.80;;;;;;;20.76;41.17;98423.13;6686479;29;20222;-81
2024/03/15 12:47:36;;;;;;;2.20;1.50;;;;;;;21.38;41.18;98425.06;6681288;29;20663;-81
2024/03/15 12:50:58;;;;;;;3.00;1.90;;;;;;;22.46;39.42;98425.56;6678971;29;20336;-81
2024/03/15 12:54:20;;;;;;;3.07;2.00;;;;;;;22.15;39.11;98426.97;6692654;29;20248;-82
2024/03/15 12:57:42;;;;;;;2.17;1.77;;;;;;;21.71;38.95;98427.03;6700202;29;20211;-81
2024/03/15 13:01:04;;;;;;;2.13;1.90;;;;;;;21.69;38.71;98423.78;6686740;29;20239;-81
2024/03/15 13:04:26;;;;;;;1.77;1.67;;;;;;;21.92;38.61;98439.50;6698047;29;20211;-83
2024/03/15 13:07:48;;;;;;;3.07;1.90;;;;;;;21.41;38.16;98443.66;6679149;29;20223;-82
2024/03/15 13:11:12;;;;;;;3.73;1.77;;;;;;;21.34;38.73;98434.94;6679367;29;20717;-82
2024/03/15 13:14:33;;;;;;;3.57;1.67;;;;;;;21.63;38.26;98427.63;6670311;29;20241;-82
2024/03/15 13:17:58;;;;;;;3.00;1.80;;;;;;;21.60;38.86;98427.38;6692787;29;20396;-81
2024/03/15 13:21:20;;;;;;;2.33;2.00;;;;;;;21.79;38.54;98422.88;6692677;29;20218;-82
2024/03/15 13:24:41;;;;;;;3.77;2.43;;;;;;;21.97;38.44;98420.25;6671337;29;20206;-81
2024/03/15 13:28:04;;;;;;;2.30;1.90;;;;;;;21.99;38.20;98419.94;6666388;29;20245;-82
2024/03/15 13:31:26;;;;;;;2.77;1.80;;;;;;;21.94;38.02;98420.00;6667989;29;20245;-82
2024/03/15 13:34:48;;;;;;;2.50;2.30;;;;;;;22.01;38.18;98415.00;6667333;29;20375;-82
2024/03/15 13:38:13;;;;;;;2.97;1.83;;;;;;;21.43;39.86;98429.69;6667452;29;20269;-83
2024/03/15 13:41:35;;;;;;;7.27;2.17;;;;;;;22.04;39.00;98428.97;6664366;29;20198;-81
2024/03/15 13:44:56;;;;;;;3.60;2.10;;;;;;;21.93;38.90;98423.84;6662981;29;20297;-81
2024/03/15 13:48:18;;;;;;;4.03;1.90;;;;;;;21.90;38.64;98399.72;6663358;29;20772;-82
2024/03/15 13:51:40;;;;;;;2.57;2.17;;;;;;;22.23;37.87;98404.34;6666787;29;20302;-81
2024/03/15 13:55:07;;;;;;;2.40;1.90;;;;;;;21.26;39.73;98412.78;6667608;29;20236;-81
2024/03/15 13:58:31;;;;;;;3.27;2.43;;;;;;;21.44;39.39;98362.72;6668706;29;20230;-82
2024/03/15 14:01:53;;;;;;;5.23;2.57;;;;;;;22.00;39.43;98413.34;6668120;29;20700;-82
2024/03/15 14:05:14;;;;;;;2.33;2.10;;;;;;;21.77;38.63;98403.13;6667669;29;20301;-82
2024/03/15 14:08:36;;;;;;;2.53;2.30;;;;;;;21.60;38.68;98400.75;6667684;29;20238;-80
2024/03/15 14:11:58;;;;;;;2.50;1.90;;;;;;;21.57;38.46;98405.97;6667359;29;20587;-84
2024/03/15 14:15:20;;;;;;;2.30;1.83;;;;;;;21.36;38.26;98401.75;6667426;29;20280;-82
2024/03/15 14:18:42;;;;;;;3.27;1.90;;;;;;;21.18;38.87;98427.09;6667384;29;20237;-82
2024/03/15 14:22:04;;;;;;;3.03;1.80;;;;;;;21.13;38.91;98425.16;6671982;29;20209;-81
2024/03/15 14:25:29;;;;;;;2.90;2.17;;;;;;;21.15;38.23;98416.66;6670481;29;20207;-82
2024/03/15 14:28:50;;;;;;;3.17;1.77;;;;;;;21.02;37.82;98423.56;6671405;29;20326;-81
2024/03/15 14:32:12;;;;;;;5.77;1.73;;;;;;;20.88;37.99;98418.97;6672252;29;20350;-81
2024/03/15 14:35:33;;;;;;;1.83;1.73;;;;;;;21.29;37.68;98425.91;6667603;29;20249;-82
2024/03/15 14:38:55;;;;;;;3.03;1.90;;;;;;;20.45;38.45;98377.75;6667868;29;20266;-81
2024/03/15 14:42:17;;;;;;;7.73;6.07;;;;;;;20.97;38.96;98419.22;6671255;29;20257;-81
2024/03/15 14:45:38;;;;;;;2.50;2.00;;;;;;;21.23;38.54;98424.28;6678439;29;20216;-81
2024/03/15 14:49:03;;;;;;;5.00;3.50;;;;;;;20.98;38.38;98429.91;6677052;29;20270;-81
2024/03/15 14:52:25;;;;;;;2.00;1.80;;;;;;;21.40;37.93;98425.56;6679258;29;20256;-81
2024/03/15 14:55:46;;;;;;;3.37;1.87;;;;;;;21.41;37.67;98421.72;6677573;29;20256;-81
2024/03/15 14:59:08;;;;;;;2.27;1.90;;;;;;;20.92;38.23;98416.53;6676293;29;20336;-82
2024/03/15 15:02:31;;;;;;;4.27;2.10;;;;;;;21.04;38.51;98425.25;6668707;29;20794;-81
2024/03/15 15:05:53;;;;;;;2.77;1.67;;;;;;;21.26;38.49;98429.22;6701328;29;20353;-81
2024/03/15 15:09:18;;;;;;;4.33;2.30;;;;;;;21.14;38.21;98420.50;6702460;29;20382;-81
2024/03/15 15:12:40;;;;;;;2.37;2.03;;;;;;;20.94;39.38;98431.56;6707071;29;20266;-81
2024/03/15 15:16:02;;;;;;;1.80;1.70;;;;;;;21.39;37.96;98442.31;6704399;29;20224;-81
2024/03/15 15:19:23;;;;;;;4.37;2.10;;;;;;;21.49;38.41;98423.06;6705826;29;20276;-81
2024/03/15 15:22:46;;;;;;;4.40;2.07;;;;;;;21.48;38.40;98414.00;6687665;29;20307;-81
2024/03/15 15:26:08;;;;;;;4.83;1.90;;;;;;;21.71;37.81;98413.31;6678456;29;20229;-82
2024/03/15 15:29:30;;;;;;;3.67;1.90;;;;;;;21.55;37.94;98419.97;6678502;29;20392;-82
2024/03/15 15:32:52;;;;;;;4.10;2.20;;;;;;;20.92;38.64;98420.06;6678589;29;20241;-82
2024/03/15 15:36:14;;;;;;;2.53;1.70;;;;;;;21.00;38.69;98418.66;6692082;29;20532;-83
2024/03/15 15:39:35;;;;;;;4.30;1.73;;;;;;;21.07;39.16;98417.25;6693293;29;20773;-81
2024/03/15 15:42:57;;;;;;;4.63;1.73;;;;;;;21.01;38.62;98404.69;6697165;29;20205;-82
2024/03/15 15:46:19;;;;;;;2.10;1.70;;;;;;;20.81;39.33;98420.38;6670687;29;20269;-82
2024/03/15 15:49:43;;;;;;;8.03;5.13;;;;;;;20.90;39.29;98414.06;6682332;29;20316;-83
2024/03/15 15:53:05;;;;;;;11.40;8.43;;;;;;;21.18;38.66;98408.69;6666254;29;20301;-82
2024/03/15 15:56:26;;;;;;;7.17;3.47;;;;;;;21.01;38.13;98403.84;6681953;29;20306;-82
2024/03/15 15:59:48;;;;;;;3.87;1.80;;;;;;;21.01;37.98;98406.59;6678451;29;20256;-82
2024/03/15 16:03:10;;;;;;;2.90;1.97;;;;;;;21.05;38.83;98383.81;6691124;29;20205;-80
2024/03/15 16:06:31;;;;;;;3.70;2.00;;;;;;;21.06;39.19;98417.53;6687649;29;20213;-80
2024/03/15 16:09:53;;;;;;;2.13;1.93;;;;;;;20.78;39.59;98408.84;6694211;29;20320;-83